Time;durP1;ratioP1;P1;durP2;ratioP2;P2;SDS_P1;SDS_P2;PMS_P1;PMS_P2;Temp;Humidity;BMP_temperature;BMP_pressure;BME280_temperature;BME280_humidity;BME280_pressure;Samples;Min_cycle;Max_cycle;Signal;HPM_P1;HPM_P2
2022/05/08 00:01:16;;;;;;;2.63;0.90;;;9.60;99.90;;;;;;5053898;28;20277;-91
2022/05/08 00:06:49;;;;;;;3.40;1.00;;;9.60;99.90;;;;;;5358646;22;20251;-90
2022/05/08 00:09:23;;;;;;;1.57;0.80;;;9.70;99.90;;;;;;5070086;28;20231;-91
2022/05/08 00:12:00;;;;;;;2.47;0.83;;;9.90;99.90;;;;;;5073064;28;20235;-91
2022/05/08 00:14:44;;;;;;;2.63;0.97;;;9.60;99.90;;;;;;5071589;28;20223;-91
2022/05/08 00:17:24;;;;;;;2.80;0.90;;;9.50;99.90;;;;;;5074286;28;20724;-90
2022/05/08 00:23:07;;;;;;;2.03;0.83;;;9.60;99.90;;;;;;5074060;28;20248;-91
2022/05/08 00:25:39;;;;;;;1.03;0.77;;;9.60;99.90;;;;;;5071366;28;20303;-90
2022/05/08 00:28:24;;;;;;;3.60;0.90;;;9.70;99.90;;;;;;5071610;28;20228;-89
2022/05/08 00:30:58;;;;;;;1.40;0.70;;;9.60;99.90;;;;;;5072464;28;20208;-91
2022/05/08 00:33:35;;;;;;;1.10;0.60;;;9.70;99.90;;;;;;5074645;28;20204;-90
2022/05/08 00:36:13;;;;;;;1.63;0.57;;;9.80;99.90;;;;;;5072986;28;20228;-91
2022/05/08 00:38:47;;;;;;;0.77;0.60;;;9.80;99.90;;;;;;5071718;28;20199;-91
2022/05/08 00:41:28;;;;;;;4.37;0.80;;;9.80;99.90;;;;;;5052835;28;20201;-91
2022/05/08 00:44:00;;;;;;;1.27;0.53;;;9.60;99.90;;;;;;5045910;28;20232;-92
2022/05/08 00:46:35;;;;;;;2.70;0.93;;;9.40;99.90;;;;;;5049488;28;20201;-92
2022/05/08 00:49:15;;;;;;;1.80;0.70;;;9.10;99.90;;;;;;5053982;28;20232;-90
2022/05/08 00:52:01;;;;;;;3.53;1.00;;;8.90;99.90;;;;;;5053470;28;20209;-92
2022/05/08 00:54:40;;;;;;;1.87;0.93;;;8.80;99.90;;;;;;5056159;28;20185;-92
2022/05/08 00:57:22;;;;;;;2.17;0.97;;;8.90;99.90;;;;;;5054992;28;20256;-90
2022/05/08 00:59:56;;;;;;;3.87;1.20;;;8.90;99.90;;;;;;5084243;28;20203;-91
2022/05/08 01:02:33;;;;;;;1.53;0.60;;;8.90;99.90;;;;;;5097826;28;20191;-90
2022/05/08 01:07:59;;;;;;;1.80;0.77;;;9.00;99.90;;;;;;5083741;22;20235;-91
2022/05/08 01:10:31;;;;;;;3.47;1.13;;;8.70;99.90;;;;;;5050462;28;20612;-91
2022/05/08 01:13:03;;;;;;;2.27;0.70;;;8.80;99.90;;;;;;5047549;28;20205;-91
2022/05/08 01:15:42;;;;;;;4.00;0.93;;;8.80;99.90;;;;;;5045353;28;20209;-90
2022/05/08 01:18:15;;;;;;;2.03;0.80;;;8.70;99.90;;;;;;5043205;28;20220;-87
2022/05/08 01:20:50;;;;;;;3.87;1.00;;;8.80;99.90;;;;;;5050010;28;20665;-91
2022/05/08 01:23:23;;;;;;;1.70;0.93;;;8.80;99.90;;;;;;5041818;28;20201;-91
2022/05/08 01:25:58;;;;;;;2.37;0.70;;;8.80;99.90;;;;;;5040791;28;20295;-91
2022/05/08 01:28:33;;;;;;;3.33;1.00;;;8.90;99.90;;;;;;5051281;28;20228;-91
2022/05/08 01:31:08;;;;;;;2.57;0.90;;;8.80;99.90;;;;;;5045700;28;20567;-90
2022/05/08 01:33:41;;;;;;;5.77;0.83;;;8.80;99.90;;;;;;5041542;28;20203;-91
2022/05/08 01:36:17;;;;;;;3.93;0.90;;;8.60;99.90;;;;;;5051179;28;20200;-88
2022/05/08 01:38:55;;;;;;;2.30;0.90;;;8.70;99.90;;;;;;5042743;28;20216;-89
2022/05/08 01:41:30;;;;;;;2.63;0.93;;;8.60;99.90;;;;;;5041715;28;20227;-90
2022/05/08 01:44:02;;;;;;;3.17;1.00;;;8.50;99.90;;;;;;5042411;28;20208;-90
2022/05/08 01:46:33;;;;;;;3.63;0.80;;;8.40;99.90;;;;;;5049167;28;20209;-91
2022/05/08 01:49:04;;;;;;;3.27;1.00;;;8.30;99.90;;;;;;5046396;28;20236;-90
2022/05/08 01:51:46;;;;;;;3.53;1.07;;;8.40;99.90;;;;;;5040231;28;20556;-91
2022/05/08 01:54:20;;;;;;;3.27;1.10;;;8.30;99.90;;;;;;5042144;28;20193;-90
2022/05/08 01:56:52;;;;;;;2.03;1.00;;;8.30;99.90;;;;;;5045814;28;20216;-91
2022/05/08 01:59:23;;;;;;;3.20;1.13;;;8.30;99.90;;;;;;5037884;28;20213;-90
2022/05/08 02:01:56;;;;;;;6.03;2.20;;;8.20;99.90;;;;;;5041459;28;20295;-90
2022/05/08 02:04:30;;;;;;;5.50;1.20;;;8.00;99.90;;;;;;5048528;28;20197;-90
2022/05/08 02:07:06;;;;;;;2.60;1.27;;;7.90;99.90;;;;;;5040511;28;20287;-90
2022/05/08 02:10:00;;;;;;;3.60;1.27;;;8.10;99.90;;;;;;5046325;28;20302;-90
2022/05/08 02:12:34;;;;;;;4.43;1.80;;;8.10;99.90;;;;;;5055641;28;20207;-90
2022/05/08 02:15:07;;;;;;;2.73;1.37;;;8.10;99.90;;;;;;5052508;28;20207;-91
2022/05/08 02:17:44;;;;;;;1.87;0.87;;;8.10;99.90;;;;;;5049488;28;20219;-90
2022/05/08 02:20:28;;;;;;;1.90;1.10;;;8.10;99.90;;;;;;5052397;28;20216;-90
2022/05/08 02:23:02;;;;;;;3.57;1.17;;;8.10;99.90;;;;;;5049408;28;20291;-90
2022/05/08 02:25:42;;;;;;;3.37;1.70;;;8.00;99.90;;;;;;5054261;28;20201;-90
2022/05/08 02:28:14;;;;;;;3.37;1.00;;;8.00;99.90;;;;;;5049272;28;20605;-90
2022/05/08 02:30:47;;;;;;;2.50;0.97;;;8.10;99.90;;;;;;5051950;28;20205;-90
2022/05/08 02:33:19;;;;;;;4.20;1.10;;;7.80;99.90;;;;;;5054309;28;20204;-90
2022/05/08 02:38:25;;;;;;;4.20;1.10;;;7.70;99.90;;;;;;5383444;22;20251;-91
2022/05/08 02:40:59;;;;;;;1.97;1.00;;;7.60;99.90;;;;;;5090398;28;20233;-91
2022/05/08 02:43:31;;;;;;;2.37;1.00;;;7.60;99.90;;;;;;5090511;28;20217;-91
2022/05/08 02:46:03;;;;;;;1.73;1.00;;;7.60;99.90;;;;;;5089878;28;20202;-91
2022/05/08 02:48:34;;;;;;;2.93;1.20;;;7.50;99.90;;;;;;5079841;28;20280;-91
2022/05/08 02:51:15;;;;;;;2.93;0.97;;;7.50;99.90;;;;;;5087551;28;20219;-91
2022/05/08 02:53:47;;;;;;;2.80;1.30;;;7.40;99.90;;;;;;5078644;28;20665;-91
2022/05/08 02:59:08;;;;;;;3.53;1.07;;;7.40;99.90;;;;;;5083833;28;20234;-91
2022/05/08 03:01:40;;;;;;;3.13;1.00;;;7.40;99.90;;;;;;5090224;28;20211;-91
2022/05/08 03:04:13;;;;;;;2.23;0.97;;;7.40;99.90;;;;;;5091607;28;20215;-91
2022/05/08 03:06:45;;;;;;;3.00;0.93;;;7.30;99.90;;;;;;5090897;28;20255;-91
2022/05/08 03:09:19;;;;;;;1.73;0.80;;;7.20;99.90;;;;;;5089962;28;20220;-91
2022/05/08 03:11:54;;;;;;;3.73;1.00;;;7.10;99.90;;;;;;5083872;28;20202;-90
2022/05/08 03:14:27;;;;;;;1.60;1.03;;;7.10;99.90;;;;;;5090455;28;20203;-91
2022/05/08 03:16:59;;;;;;;1.60;0.77;;;7.10;99.90;;;;;;5088968;28;20200;-90
2022/05/08 03:19:32;;;;;;;4.77;1.03;;;7.10;99.90;;;;;;5091550;28;20268;-91
2022/05/08 03:30:13;;;;;;;4.53;1.00;;;7.10;99.90;;;;;;5071945;28;20224;-89
2022/05/08 03:32:45;;;;;;;2.20;1.00;;;7.10;99.90;;;;;;5066200;28;20207;-89
2022/05/08 03:35:18;;;;;;;2.60;1.00;;;7.00;99.90;;;;;;5043999;28;20292;-89
2022/05/08 03:37:49;;;;;;;1.07;0.93;;;7.00;99.90;;;;;;5047890;28;20223;-89
2022/05/08 03:40:21;;;;;;;3.47;1.00;;;6.70;99.90;;;;;;5079397;28;20255;-89
2022/05/08 03:42:52;;;;;;;3.13;1.13;;;6.40;99.90;;;;;;5065622;28;20238;-89
2022/05/08 03:45:26;;;;;;;2.90;0.90;;;6.50;99.90;;;;;;5083274;28;20207;-89
2022/05/08 03:47:59;;;;;;;3.43;1.20;;;6.50;99.90;;;;;;5083444;28;20235;-89
2022/05/08 03:50:31;;;;;;;3.47;1.00;;;6.60;99.90;;;;;;5082526;28;20267;-88
2022/05/08 03:53:03;;;;;;;1.87;0.83;;;6.70;99.90;;;;;;5084364;28;20650;-89
2022/05/08 03:55:36;;;;;;;1.47;1.00;;;6.80;99.90;;;;;;5082322;28;20716;-91
2022/05/08 03:58:07;;;;;;;2.17;0.83;;;6.70;99.90;;;;;;5081280;28;20659;-89
2022/05/08 04:00:41;;;;;;;1.53;0.80;;;6.60;99.90;;;;;;5089121;28;20231;-88
2022/05/08 04:03:12;;;;;;;2.60;0.93;;;6.70;99.90;;;;;;5078061;28;20212;-90
2022/05/08 04:05:44;;;;;;;2.47;1.03;;;6.80;99.90;;;;;;5074574;28;20195;-88
2022/05/08 04:08:16;;;;;;;1.60;1.17;;;6.80;99.90;;;;;;5075645;28;20195;-89
2022/05/08 04:10:47;;;;;;;0.97;0.90;;;6.80;99.90;;;;;;5074213;28;20229;-89
2022/05/08 04:13:18;;;;;;;3.33;0.90;;;6.90;99.90;;;;;;5063118;28;20207;-89
2022/05/08 04:18:41;;;;;;;1.83;1.00;;;7.00;99.90;;;;;;5063016;28;20215;-89
2022/05/08 04:21:13;;;;;;;2.47;1.00;;;7.00;99.90;;;;;;5067033;28;20273;-89
2022/05/08 04:26:32;;;;;;;2.77;0.93;;;6.90;99.90;;;;;;5063816;28;20281;-90
2022/05/08 04:29:03;;;;;;;3.97;1.20;;;6.90;99.90;;;;;;5040560;28;20676;-90
2022/05/08 04:31:38;;;;;;;1.63;1.00;;;6.90;99.90;;;;;;5051362;28;20242;-90
2022/05/08 04:34:12;;;;;;;1.37;1.17;;;6.60;99.90;;;;;;5056532;28;20211;-89
2022/05/08 04:36:44;;;;;;;3.60;1.40;;;6.60;99.90;;;;;;5053558;28;20248;-89
2022/05/08 04:39:17;;;;;;;1.70;1.37;;;6.60;99.90;;;;;;5039345;28;20208;-90
2022/05/08 04:41:49;;;;;;;1.73;1.00;;;6.50;99.90;;;;;;5040466;28;20211;-90
2022/05/08 04:44:20;;;;;;;2.03;1.20;;;6.50;99.90;;;;;;5039651;28;20570;-90
2022/05/08 04:46:53;;;;;;;4.77;1.63;;;6.50;99.90;;;;;;5039386;28;20208;-90
2022/05/08 04:49:25;;;;;;;3.93;1.00;;;6.50;99.90;;;;;;5038847;28;20201;-90
2022/05/08 04:51:58;;;;;;;1.83;1.27;;;6.50;99.90;;;;;;5044476;28;20200;-90
2022/05/08 04:54:30;;;;;;;3.20;1.40;;;6.50;99.90;;;;;;5039995;28;20239;-90
2022/05/08 04:57:02;;;;;;;3.47;1.43;;;6.50;99.90;;;;;;5039778;28;20230;-90
2022/05/08 04:59:34;;;;;;;4.03;1.70;;;6.50;99.90;;;;;;5037996;28;20243;-90
2022/05/08 05:02:08;;;;;;;3.40;1.27;;;6.60;99.90;;;;;;5039187;28;20307;-90
2022/05/08 05:04:40;;;;;;;4.03;1.40;;;6.70;99.90;;;;;;5040313;28;20198;-90
2022/05/08 05:07:12;;;;;;;3.20;1.60;;;6.70;99.90;;;;;;5049821;28;20237;-90
2022/05/08 05:09:43;;;;;;;3.27;1.50;;;6.60;99.90;;;;;;5043305;28;20208;-90
2022/05/08 05:12:15;;;;;;;1.83;1.23;;;6.60;99.90;;;;;;5070919;28;20203;-90
2022/05/08 05:14:51;;;;;;;4.27;1.57;;;6.70;99.90;;;;;;5089232;28;20276;-90
2022/05/08 05:17:25;;;;;;;4.07;1.60;;;6.70;99.90;;;;;;5088484;28;20204;-91
2022/05/08 05:19:56;;;;;;;1.53;1.10;;;6.50;99.90;;;;;;5079910;28;20202;-90
2022/05/08 05:22:28;;;;;;;1.83;1.30;;;6.50;99.90;;;;;;5082091;28;20271;-90
2022/05/08 05:24:59;;;;;;;3.00;1.00;;;6.60;99.90;;;;;;5083240;28;20215;-89
2022/05/08 05:27:32;;;;;;;1.83;1.27;;;6.60;99.90;;;;;;5084391;28;20199;-89
2022/05/08 05:33:15;;;;;;;3.80;1.40;;;6.70;99.90;;;;;;5073583;28;20204;-88
2022/05/08 05:35:50;;;;;;;2.63;0.90;;;6.70;99.90;;;;;;5080832;28;20203;-88
2022/05/08 05:38:25;;;;;;;2.40;1.37;;;6.80;99.90;;;;;;5090338;28;20202;-89
2022/05/08 05:41:00;;;;;;;1.20;1.07;;;7.00;99.90;;;;;;5092130;28;20213;-89
2022/05/08 05:43:38;;;;;;;4.30;1.13;;;7.00;99.90;;;;;;5086840;28;20311;-88
2022/05/08 05:49:07;;;;;;;4.13;1.20;;;7.00;99.90;;;;;;5082931;28;20231;-90
2022/05/08 05:51:39;;;;;;;2.07;1.37;;;7.00;99.90;;;;;;5077882;28;20269;-91
2022/05/08 05:54:10;;;;;;;5.23;1.43;;;6.90;99.90;;;;;;5080535;28;20620;-88
2022/05/08 05:56:41;;;;;;;2.70;1.30;;;7.00;99.90;;;;;;5079517;28;20208;-91
2022/05/08 05:59:14;;;;;;;1.97;1.20;;;6.90;99.90;;;;;;5080288;28;20235;-90
2022/05/08 06:02:05;;;;;;;2.23;1.07;;;6.80;99.90;;;;;;5083500;28;20573;-90
2022/05/08 06:04:38;;;;;;;3.13;1.10;;;6.60;99.90;;;;;;5066236;28;20311;-90
2022/05/08 06:07:10;;;;;;;4.60;1.17;;;6.60;99.90;;;;;;5063283;28;20208;-90
2022/05/08 06:09:41;;;;;;;4.43;1.10;;;6.60;99.90;;;;;;5065737;28;20219;-90
2022/05/08 06:12:12;;;;;;;1.57;0.80;;;6.60;99.90;;;;;;5060717;28;20239;-91
2022/05/08 06:14:46;;;;;;;2.73;1.03;;;6.70;99.90;;;;;;5062951;28;20204;-91
2022/05/08 06:17:17;;;;;;;2.93;1.03;;;6.70;99.90;;;;;;5061689;28;20234;-89
2022/05/08 06:19:51;;;;;;;1.40;0.80;;;6.60;99.90;;;;;;5064874;28;20668;-90
2022/05/08 06:22:22;;;;;;;2.87;0.80;;;6.70;99.90;;;;;;5062153;28;20211;-90
2022/05/08 06:24:53;;;;;;;2.87;0.70;;;6.70;99.90;;;;;;5062367;28;20239;-90
2022/05/08 06:27:26;;;;;;;3.03;1.23;;;6.70;99.90;;;;;;5045387;28;20217;-90
2022/05/08 06:29:59;;;;;;;3.83;0.93;;;6.70;99.90;;;;;;5042760;28;20223;-91
2022/05/08 06:32:31;;;;;;;3.93;0.70;;;6.60;99.90;;;;;;5037952;28;20331;-91
2022/05/08 06:35:24;;;;;;;3.57;0.90;;;6.60;99.90;;;;;;5057513;28;20216;-90
2022/05/08 06:37:56;;;;;;;1.00;0.60;;;6.70;99.90;;;;;;5056278;28;20212;-89
2022/05/08 06:40:28;;;;;;;2.57;0.90;;;6.70;99.90;;;;;;5040805;28;20266;-90
2022/05/08 06:42:59;;;;;;;3.30;1.00;;;6.60;99.90;;;;;;5039105;28;20216;-90
2022/05/08 06:45:30;;;;;;;3.80;0.80;;;6.70;99.90;;;;;;5037231;28;20610;-90
2022/05/08 06:48:02;;;;;;;5.67;1.10;;;6.70;99.90;;;;;;5042594;28;20216;-90
2022/05/08 06:50:35;;;;;;;2.80;0.70;;;6.70;99.90;;;;;;5039831;28;20205;-90
2022/05/08 06:53:07;;;;;;;2.80;0.70;;;6.70;99.90;;;;;;5039360;28;20209;-90
2022/05/08 06:55:39;;;;;;;2.80;0.67;;;6.60;99.90;;;;;;5041157;28;20240;-90
2022/05/08 06:58:12;;;;;;;1.60;0.87;;;6.60;99.90;;;;;;5040570;28;20247;-90
2022/05/08 07:03:31;;;;;;;3.17;0.80;;;6.60;99.90;;;;;;5043484;28;20243;-89
2022/05/08 07:06:04;;;;;;;3.07;1.00;;;6.60;99.90;;;;;;5049848;28;20598;-91
2022/05/08 07:08:36;;;;;;;2.30;0.70;;;6.60;99.90;;;;;;5042232;28;20274;-91
2022/05/08 07:11:08;;;;;;;3.90;0.80;;;6.60;99.90;;;;;;5038939;28;20220;-90
2022/05/08 07:13:41;;;;;;;5.63;1.20;;;6.60;99.90;;;;;;5039254;28;20219;-90
2022/05/08 07:16:13;;;;;;;2.50;0.87;;;6.60;99.90;;;;;;5041061;28;20286;-89
2022/05/08 07:18:45;;;;;;;3.83;1.20;;;6.60;99.90;;;;;;5041434;28;20197;-90
2022/05/08 07:21:19;;;;;;;4.93;1.13;;;6.60;99.90;;;;;;5047444;28;20236;-90
2022/05/08 07:23:51;;;;;;;1.83;0.73;;;6.60;99.90;;;;;;5046309;28;20215;-89
2022/05/08 07:26:23;;;;;;;3.10;1.00;;;6.70;99.90;;;;;;5052091;28;20266;-89
2022/05/08 07:28:54;;;;;;;2.13;0.83;;;6.80;99.90;;;;;;5062611;28;20698;-89
2022/05/08 07:31:26;;;;;;;4.63;1.00;;;6.60;99.90;;;;;;5064984;28;20309;-88
2022/05/08 07:36:44;;;;;;;4.60;1.10;;;6.50;99.90;;;;;;5067614;28;20200;-90
2022/05/08 07:39:17;;;;;;;5.63;1.07;;;6.50;99.90;;;;;;5073822;28;20210;-89
2022/05/08 07:41:48;;;;;;;5.27;1.00;;;6.40;99.90;;;;;;5077708;28;20206;-88
2022/05/08 07:44:19;;;;;;;3.57;1.37;;;6.40;99.90;;;;;;5073374;28;20211;-90
2022/05/08 07:46:51;;;;;;;5.70;1.27;;;6.40;99.90;;;;;;5059883;28;20212;-90
2022/05/08 07:49:23;;;;;;;2.83;0.83;;;6.30;99.90;;;;;;5050043;28;20213;-90
2022/05/08 07:51:57;;;;;;;2.63;0.83;;;6.30;99.90;;;;;;5058575;28;20248;-90
2022/05/08 07:54:28;;;;;;;7.00;1.10;;;6.30;99.90;;;;;;5486485;22;20236;-89
2022/05/08 07:57:00;;;;;;;2.87;0.97;;;6.20;99.90;;;;;;5043806;28;20212;-91
2022/05/08 07:59:31;;;;;;;2.00;1.07;;;6.10;99.90;;;;;;5040938;28;20213;-91
2022/05/08 08:02:02;;;;;;;1.97;0.87;;;6.20;99.90;;;;;;5040259;28;20338;-90
2022/05/08 08:04:34;;;;;;;2.07;1.20;;;6.10;99.90;;;;;;5041951;28;20213;-91
2022/05/08 08:07:08;;;;;;;1.50;1.00;;;6.20;99.90;;;;;;5040307;28;20259;-90
2022/05/08 08:09:41;;;;;;;3.70;1.13;;;6.10;99.90;;;;;;5040462;28;20579;-91
2022/05/08 08:12:13;;;;;;;2.57;1.10;;;6.20;99.90;;;;;;5073741;22;21211;-91
2022/05/08 08:14:44;;;;;;;3.10;0.97;;;6.10;99.90;;;;;;5040906;28;20213;-91
2022/05/08 08:17:19;;;;;;;3.37;2.20;;;6.10;99.90;;;;;;5040766;28;20209;-92
2022/05/08 08:19:53;;;;;;;2.23;0.80;;;6.00;99.90;;;;;;5039643;28;20201;-91
2022/05/08 08:22:28;;;;;;;3.77;1.10;;;6.00;99.90;;;;;;5040107;28;20284;-91
2022/05/08 08:25:00;;;;;;;3.97;1.03;;;6.00;99.90;;;;;;5040067;28;20196;-90
2022/05/08 08:27:33;;;;;;;2.83;1.17;;;6.10;99.90;;;;;;5038265;28;20201;-91
2022/05/08 08:30:04;;;;;;;4.40;1.13;;;6.10;99.90;;;;;;5040488;28;20240;-92
2022/05/08 08:32:37;;;;;;;3.53;1.00;;;6.00;99.90;;;;;;5039123;28;20260;-90
2022/05/08 08:35:10;;;;;;;1.33;0.80;;;6.00;99.90;;;;;;5040271;28;20213;-90
2022/05/08 08:37:44;;;;;;;2.30;1.00;;;6.00;99.90;;;;;;5040152;28;20205;-90
2022/05/08 08:40:16;;;;;;;1.60;1.20;;;6.00;99.90;;;;;;5040645;28;20209;-90
2022/05/08 08:42:48;;;;;;;2.67;0.73;;;6.00;99.90;;;;;;5038725;28;20285;-90
2022/05/08 08:48:27;;;;;;;3.67;1.10;;;6.00;99.90;;;;;;5051545;28;20228;-89
2022/05/08 08:50:59;;;;;;;3.47;1.53;;;6.00;99.90;;;;;;5055085;28;20201;-91
2022/05/08 08:53:35;;;;;;;1.47;1.00;;;6.00;99.90;;;;;;5056903;28;20236;-91
2022/05/08 08:56:07;;;;;;;4.57;0.93;;;5.90;99.90;;;;;;5040612;28;20200;-91
2022/05/08 08:58:38;;;;;;;2.77;0.70;;;6.00;99.90;;;;;;5040140;28;20240;-91
2022/05/08 09:01:10;;;;;;;1.33;0.70;;;6.00;99.90;;;;;;5044674;28;20205;-90
2022/05/08 09:03:41;;;;;;;2.07;1.00;;;6.00;99.90;;;;;;5040660;28;20216;-90
2022/05/08 09:06:15;;;;;;;4.73;1.00;;;6.00;99.90;;;;;;5042527;28;20213;-90
2022/05/08 09:08:48;;;;;;;4.23;1.10;;;6.00;99.90;;;;;;5041475;28;20228;-90
2022/05/08 09:11:34;;;;;;;2.13;1.00;;;6.10;99.90;;;;;;5041460;28;20737;-91
2022/05/08 09:14:06;;;;;;;1.47;1.00;;;6.00;99.90;;;;;;5041326;28;20220;-90
2022/05/08 09:16:55;;;;;;;1.80;1.10;;;6.00;99.90;;;;;;5043528;28;20216;-89
2022/05/08 09:19:34;;;;;;;3.37;0.90;;;6.00;99.90;;;;;;5039382;28;20201;-90
2022/05/08 09:22:08;;;;;;;3.13;0.90;;;6.00;99.90;;;;;;5040593;28;20224;-90
2022/05/08 09:24:54;;;;;;;4.33;0.97;;;5.90;99.90;;;;;;5041364;28;20209;-90
2022/05/08 09:27:26;;;;;;;3.53;0.93;;;5.90;99.90;;;;;;5044860;28;20559;-92
2022/05/08 09:30:10;;;;;;;3.03;0.70;;;5.80;99.90;;;;;;5042749;28;20205;-91
2022/05/08 09:32:42;;;;;;;2.23;0.80;;;5.80;99.90;;;;;;5042367;28;20236;-91
2022/05/08 09:35:15;;;;;;;6.00;2.00;;;5.80;99.90;;;;;;5044166;28;20262;-91
2022/05/08 09:37:56;;;;;;;3.27;1.03;;;5.90;99.90;;;;;;5043219;28;20355;-91
2022/05/08 09:40:30;;;;;;;2.17;1.23;;;5.90;99.90;;;;;;5039951;28;20212;-90
2022/05/08 09:43:01;;;;;;;2.70;0.97;;;5.90;99.90;;;;;;5039708;28;20294;-90
2022/05/08 09:45:32;;;;;;;3.57;1.10;;;5.90;99.90;;;;;;5043219;28;20209;-90
2022/05/08 09:48:05;;;;;;;3.80;1.10;;;5.90;99.90;;;;;;5041783;28;20282;-89
2022/05/08 09:50:36;;;;;;;2.10;1.03;;;5.90;99.90;;;;;;5042101;28;20205;-90
2022/05/08 09:53:08;;;;;;;2.00;1.00;;;5.90;99.90;;;;;;5042566;28;20208;-90
2022/05/08 09:55:42;;;;;;;2.00;1.27;;;5.90;99.90;;;;;;5042414;28;20626;-90
2022/05/08 09:58:15;;;;;;;4.07;1.30;;;5.90;99.90;;;;;;5042374;28;20659;-91
2022/05/08 10:00:47;;;;;;;1.83;0.80;;;5.90;99.90;;;;;;5052161;28;20204;-90
2022/05/08 10:03:18;;;;;;;3.07;1.37;;;5.90;99.90;;;;;;5053053;28;20193;-91
2022/05/08 10:05:50;;;;;;;3.03;1.20;;;5.80;99.90;;;;;;5054573;28;20204;-91
2022/05/08 10:08:23;;;;;;;1.93;1.57;;;5.80;99.90;;;;;;5049228;28;20225;-91
2022/05/08 10:14:00;;;;;;;4.50;1.40;;;5.70;99.90;;;;;;5044932;28;20240;-90
2022/05/08 10:16:55;;;;;;;2.57;1.20;;;5.70;99.90;;;;;;5043183;28;20549;-90
2022/05/08 10:19:49;;;;;;;3.53;0.97;;;5.80;99.90;;;;;;5040515;28;20209;-90
2022/05/08 10:22:20;;;;;;;2.00;1.00;;;5.80;99.90;;;;;;5042015;28;20212;-90
2022/05/08 10:24:58;;;;;;;1.60;0.93;;;5.80;99.90;;;;;;5040725;28;20555;-91
2022/05/08 10:27:33;;;;;;;5.30;1.10;;;5.80;99.90;;;;;;5037804;28;20669;-91
2022/05/08 10:30:42;;;;;;;2.83;0.93;;;5.80;99.90;;;;;;5038829;28;20659;-91
2022/05/08 10:33:18;;;;;;;2.07;0.97;;;5.70;99.90;;;;;;5033253;28;20315;-91
2022/05/08 10:36:09;;;;;;;2.60;1.10;;;5.80;99.90;;;;;;5019470;28;20205;-91
2022/05/08 10:38:41;;;;;;;2.33;1.40;;;5.80;99.90;;;;;;5020711;28;20624;-92
2022/05/08 10:41:47;;;;;;;3.07;1.30;;;5.70;99.90;;;;;;5026008;28;20241;-92
2022/05/08 10:44:43;;;;;;;3.37;1.10;;;5.70;99.90;;;;;;5018606;28;20292;-91
2022/05/08 10:47:45;;;;;;;3.77;1.27;;;5.70;99.90;;;;;;5019529;28;20264;-91
2022/05/08 10:50:17;;;;;;;4.10;1.27;;;5.70;99.90;;;;;;5022305;28;20373;-91
2022/05/08 10:52:49;;;;;;;5.57;1.17;;;5.70;99.90;;;;;;5051374;28;20598;-90
2022/05/08 10:55:27;;;;;;;3.43;1.40;;;5.70;99.90;;;;;;5055784;28;20272;-91
2022/05/08 10:57:59;;;;;;;2.10;0.83;;;5.60;99.90;;;;;;5053809;28;20201;-89
2022/05/08 11:00:33;;;;;;;1.73;1.03;;;5.70;99.90;;;;;;5042908;28;20216;-90
2022/05/08 11:03:05;;;;;;;3.40;1.10;;;5.70;99.90;;;;;;5044297;28;20733;-90
2022/05/08 11:05:37;;;;;;;2.33;1.37;;;5.60;99.90;;;;;;5044078;28;20216;-91
2022/05/08 11:08:10;;;;;;;1.80;1.07;;;5.70;99.90;;;;;;5043333;28;20209;-91
2022/05/08 11:10:47;;;;;;;3.90;1.30;;;5.70;99.90;;;;;;5042987;28;20248;-90
2022/05/08 11:13:20;;;;;;;4.03;0.83;;;5.80;99.90;;;;;;5053257;28;20227;-90
2022/05/08 11:15:52;;;;;;;4.70;1.30;;;5.70;99.90;;;;;;5049065;28;20197;-91
2022/05/08 11:18:24;;;;;;;3.13;1.27;;;5.80;99.90;;;;;;5049535;28;20243;-91
2022/05/08 11:20:57;;;;;;;2.73;0.93;;;5.70;99.90;;;;;;5059548;28;20209;-92
2022/05/08 11:23:30;;;;;;;2.80;1.20;;;5.80;99.90;;;;;;5060007;28;20259;-89
2022/05/08 11:26:05;;;;;;;1.53;1.27;;;5.60;99.90;;;;;;5059786;28;20288;-91
2022/05/08 11:28:38;;;;;;;2.73;1.10;;;5.60;99.90;;;;;;5059328;28;20200;-92
2022/05/08 11:31:18;;;;;;;1.77;1.00;;;5.50;99.90;;;;;;5059534;28;20189;-92
2022/05/08 11:36:38;;;;;;;2.47;1.13;;;5.60;99.90;;;;;;5056603;28;20236;-90
2022/05/08 11:39:14;;;;;;;2.60;1.10;;;5.70;99.90;;;;;;5055194;28;20233;-90
2022/05/08 11:41:48;;;;;;;2.30;1.37;;;5.60;99.90;;;;;;5055892;28;20204;-91
2022/05/08 11:44:36;;;;;;;2.67;1.20;;;5.70;99.90;;;;;;5056449;28;20209;-90
2022/05/08 11:47:12;;;;;;;4.10;0.90;;;5.70;99.90;;;;;;5036288;28;20225;-90
2022/05/08 11:49:46;;;;;;;2.07;0.90;;;5.70;99.90;;;;;;5035057;28;20209;-90
2022/05/08 11:52:26;;;;;;;2.07;1.23;;;5.60;99.90;;;;;;5035571;28;20213;-89
2022/05/08 11:55:01;;;;;;;1.33;1.00;;;5.60;99.90;;;;;;5034578;28;20225;-90
2022/05/08 11:57:43;;;;;;;1.33;0.90;;;5.60;99.90;;;;;;5033906;28;20628;-89
2022/05/08 12:00:17;;;;;;;1.73;1.00;;;5.60;99.90;;;;;;5032698;28;20272;-90
2022/05/08 12:02:54;;;;;;;2.47;1.20;;;5.60;99.90;;;;;;5030864;28;20293;-90
2022/05/08 12:05:30;;;;;;;1.70;1.10;;;5.60;99.90;;;;;;5029541;28;20210;-90
2022/05/08 12:08:02;;;;;;;1.10;1.00;;;5.60;99.90;;;;;;5039307;28;20200;-90
2022/05/08 12:10:45;;;;;;;2.37;1.10;;;5.60;99.90;;;;;;5047244;28;20320;-90
2022/05/08 12:13:17;;;;;;;1.90;1.00;;;5.50;99.90;;;;;;5047548;28;20220;-91
2022/05/08 12:15:48;;;;;;;1.80;0.90;;;5.50;99.90;;;;;;5056597;28;20213;-89
2022/05/08 12:18:21;;;;;;;1.10;1.00;;;5.60;99.90;;;;;;5052204;28;20259;-90
2022/05/08 12:20:53;;;;;;;3.43;1.27;;;5.50;99.90;;;;;;5046472;28;20596;-91
2022/05/08 12:23:26;;;;;;;1.13;0.77;;;5.50;99.90;;;;;;5044019;28;20213;-90
2022/05/08 12:25:59;;;;;;;1.20;1.10;;;5.50;99.90;;;;;;5042147;28;20252;-90
2022/05/08 12:28:32;;;;;;;1.50;1.00;;;5.50;99.90;;;;;;5043932;28;20201;-90
2022/05/08 12:31:03;;;;;;;3.73;1.37;;;5.50;99.90;;;;;;5045428;28;20205;-90
2022/05/08 12:33:36;;;;;;;3.20;0.77;;;5.40;99.90;;;;;;5035843;28;20206;-91
2022/05/08 12:36:09;;;;;;;4.33;1.03;;;5.40;99.90;;;;;;5026963;28;20201;-90
2022/05/08 12:38:40;;;;;;;2.33;1.00;;;5.40;99.90;;;;;;5022513;28;20261;-90
2022/05/08 12:41:12;;;;;;;3.33;0.80;;;5.40;99.90;;;;;;5023808;28;20280;-90
2022/05/08 12:43:44;;;;;;;2.73;0.90;;;5.40;99.90;;;;;;5024766;28;20210;-90
2022/05/08 12:46:15;;;;;;;2.00;1.20;;;5.40;99.90;;;;;;5025787;28;20743;-90
2022/05/08 12:48:48;;;;;;;2.33;1.00;;;5.40;99.90;;;;;;5039180;28;20231;-90
2022/05/08 12:51:20;;;;;;;1.77;0.80;;;5.40;99.90;;;;;;5054678;28;20204;-90
2022/05/08 12:53:55;;;;;;;1.83;1.07;;;5.40;99.90;;;;;;5051805;28;20773;-90
2022/05/08 12:56:26;;;;;;;4.03;1.10;;;5.40;99.90;;;;;;5051119;28;20213;-90
2022/05/08 13:01:45;;;;;;;3.00;0.80;;;5.50;99.90;;;;;;5044406;28;20236;-90
2022/05/08 13:04:18;;;;;;;3.53;1.20;;;5.50;99.90;;;;;;5044963;28;20212;-90
2022/05/08 13:06:50;;;;;;;1.57;0.97;;;5.50;99.90;;;;;;5047268;28;20209;-90
2022/05/08 13:09:21;;;;;;;1.47;0.80;;;5.50;99.90;;;;;;5041097;28;20625;-90
2022/05/08 13:11:53;;;;;;;3.67;1.10;;;5.50;99.90;;;;;;5043998;28;20201;-90
2022/05/08 13:14:25;;;;;;;2.40;0.80;;;5.50;99.90;;;;;;5043498;28;20256;-92
2022/05/08 13:16:56;;;;;;;2.07;1.13;;;5.50;99.90;;;;;;5049214;28;20248;-89
2022/05/08 13:19:33;;;;;;;2.40;1.03;;;5.50;99.90;;;;;;5043976;28;20205;-90
2022/05/08 13:22:06;;;;;;;1.00;0.90;;;5.50;99.90;;;;;;5042452;28;20214;-90
2022/05/08 13:24:38;;;;;;;2.10;0.93;;;5.50;99.90;;;;;;5042110;28;20271;-91
2022/05/08 13:27:09;;;;;;;1.77;0.90;;;5.40;99.90;;;;;;5040324;28;20267;-90
2022/05/08 13:29:40;;;;;;;1.80;0.83;;;5.50;99.90;;;;;;5023675;28;20704;-90
2022/05/08 13:32:13;;;;;;;2.37;1.00;;;5.50;99.90;;;;;;5022077;28;20214;-91
2022/05/08 13:34:46;;;;;;;3.13;1.07;;;5.40;99.90;;;;;;5043137;28;20236;-91
2022/05/08 13:37:19;;;;;;;1.90;1.03;;;5.40;99.90;;;;;;5040588;28;20207;-90
2022/05/08 13:39:50;;;;;;;1.93;0.93;;;5.40;99.90;;;;;;5041009;28;20225;-90
2022/05/08 13:42:22;;;;;;;1.10;1.00;;;5.50;99.90;;;;;;5040665;28;20236;-90
2022/05/08 13:44:55;;;;;;;2.10;1.07;;;5.50;99.90;;;;;;5044973;28;20717;-91
2022/05/08 13:47:26;;;;;;;2.80;0.70;;;5.50;99.90;;;;;;5042664;28;20209;-90
2022/05/08 13:50:02;;;;;;;5.60;0.80;;;5.50;99.90;;;;;;5043756;28;20236;-90
2022/05/08 13:52:35;;;;;;;1.23;0.90;;;5.50;99.90;;;;;;5042287;28;20667;-90
2022/05/08 13:55:13;;;;;;;2.67;1.00;;;5.60;99.90;;;;;;5041352;28;20256;-90
2022/05/08 13:57:45;;;;;;;1.27;1.03;;;5.60;99.90;;;;;;5041002;28;20196;-90
2022/05/08 14:00:17;;;;;;;1.63;1.27;;;5.60;99.90;;;;;;5040845;28;20231;-90
2022/05/08 14:02:50;;;;;;;1.30;0.90;;;5.60;99.90;;;;;;5037413;28;20220;-90
2022/05/08 14:05:23;;;;;;;2.90;0.80;;;5.60;99.90;;;;;;5022320;28;20214;-90
2022/05/08 14:07:55;;;;;;;4.43;1.00;;;5.60;99.90;;;;;;5019032;28;20292;-90
2022/05/08 14:10:27;;;;;;;1.30;0.90;;;5.70;99.90;;;;;;5018692;28;20210;-90
2022/05/08 14:13:00;;;;;;;1.87;0.83;;;5.70;99.90;;;;;;5020838;28;20225;-89
2022/05/08 14:15:33;;;;;;;3.13;1.10;;;5.90;99.90;;;;;;5021106;28;20234;-89
2022/05/08 14:18:05;;;;;;;2.33;0.70;;;6.00;99.90;;;;;;5024153;28;20233;-90
2022/05/08 14:20:39;;;;;;;2.13;0.80;;;6.00;99.90;;;;;;5024956;28;20217;-88
2022/05/08 14:23:10;;;;;;;1.00;0.60;;;6.00;99.90;;;;;;5050549;28;20188;-89
2022/05/08 14:25:41;;;;;;;2.30;1.10;;;6.00;99.90;;;;;;5055407;28;20224;-90